sensor_id;sensor_type;location;lat;lon;timestamp;P1;durP1;ratioP1;P2;durP2;ratioP2
10939;SDS011;5522;42.696;23.494;2024-01-27T00:02:14;31.42;;;17.52;;
10939;SDS011;5522;42.696;23.494;2024-01-27T00:04:44;24.33;;;12.50;;
10939;SDS011;5522;42.696;23.494;2024-01-27T00:07:11;20.52;;;11.10;;
10939;SDS011;5522;42.696;23.494;2024-01-27T00:09:38;19.25;;;9.55;;
10939;SDS011;5522;42.696;23.494;2024-01-27T00:12:07;17.50;;;9.40;;
10939;SDS011;5522;42.696;23.494;2024-01-27T00:14:37;14.85;;;7.75;;
10939;SDS011;5522;42.696;23.494;2024-01-27T00:17:05;15.27;;;7.18;;
10939;SDS011;5522;42.696;23.494;2024-01-27T00:19:33;20.52;;;12.27;;
10939;SDS011;5522;42.696;23.494;2024-01-27T00:22:00;14.05;;;8.23;;
10939;SDS011;5522;42.696;23.494;2024-01-27T00:24:27;24.50;;;10.18;;
10939;SDS011;5522;42.696;23.494;2024-01-27T00:26:54;23.17;;;11.65;;
10939;SDS011;5522;42.696;23.494;2024-01-27T00:29:23;27.67;;;11.82;;
10939;SDS011;5522;42.696;23.494;2024-01-27T00:31:50;20.95;;;10.63;;
10939;SDS011;5522;42.696;23.494;2024-01-27T00:34:19;15.55;;;8.32;;
10939;SDS011;5522;42.696;23.494;2024-01-27T00:36:46;8.50;;;4.18;;
10939;SDS011;5522;42.696;23.494;2024-01-27T00:39:14;7.80;;;3.95;;
10939;SDS011;5522;42.696;23.494;2024-01-27T00:41:41;4.03;;;2.90;;
10939;SDS011;5522;42.696;23.494;2024-01-27T00:44:08;8.75;;;2.97;;
10939;SDS011;5522;42.696;23.494;2024-01-27T00:46:39;8.50;;;3.17;;
10939;SDS011;5522;42.696;23.494;2024-01-27T00:49:06;4.20;;;2.25;;
10939;SDS011;5522;42.696;23.494;2024-01-27T00:51:33;4.30;;;1.80;;
10939;SDS011;5522;42.696;23.494;2024-01-27T00:54:00;2.58;;;1.27;;
10939;SDS011;5522;42.696;23.494;2024-01-27T00:56:27;7.22;;;2.53;;
10939;SDS011;5522;42.696;23.494;2024-01-27T00:58:54;5.15;;;2.25;;
10939;SDS011;5522;42.696;23.494;2024-01-27T01:09:18;3.13;;;1.80;;
10939;SDS011;5522;42.696;23.494;2024-01-27T01:11:45;4.80;;;2.67;;
10939;SDS011;5522;42.696;23.494;2024-01-27T01:14:12;7.32;;;2.63;;
10939;SDS011;5522;42.696;23.494;2024-01-27T01:16:39;5.13;;;2.70;;
10939;SDS011;5522;42.696;23.494;2024-01-27T01:19:06;6.63;;;3.22;;
10939;SDS011;5522;42.696;23.494;2024-01-27T01:21:33;11.23;;;4.70;;
10939;SDS011;5522;42.696;23.494;2024-01-27T01:24:02;6.70;;;3.95;;
10939;SDS011;5522;42.696;23.494;2024-01-27T01:26:29;6.68;;;2.50;;
10939;SDS011;5522;42.696;23.494;2024-01-27T01:28:56;4.80;;;2.60;;
10939;SDS011;5522;42.696;23.494;2024-01-27T01:31:23;12.90;;;5.90;;
10939;SDS011;5522;42.696;23.494;2024-01-27T01:33:50;14.77;;;7.18;;
10939;SDS011;5522;42.696;23.494;2024-01-27T01:36:16;10.95;;;5.50;;
10939;SDS011;5522;42.696;23.494;2024-01-27T01:38:43;7.38;;;2.72;;
10939;SDS011;5522;42.696;23.494;2024-01-27T01:41:12;8.32;;;3.60;;
10939;SDS011;5522;42.696;23.494;2024-01-27T01:43:39;6.72;;;2.80;;
10939;SDS011;5522;42.696;23.494;2024-01-27T01:46:06;6.32;;;2.00;;
10939;SDS011;5522;42.696;23.494;2024-01-27T01:48:33;3.55;;;1.77;;
10939;SDS011;5522;42.696;23.494;2024-01-27T01:51:03;6.22;;;1.70;;
10939;SDS011;5522;42.696;23.494;2024-01-27T01:53:31;5.82;;;1.90;;
10939;SDS011;5522;42.696;23.494;2024-01-27T01:55:58;8.35;;;1.90;;
10939;SDS011;5522;42.696;23.494;2024-01-27T01:58:26;3.95;;;1.50;;
10939;SDS011;5522;42.696;23.494;2024-01-27T02:00:59;2.83;;;1.27;;
10939;SDS011;5522;42.696;23.494;2024-01-27T02:03:26;4.03;;;1.85;;
10939;SDS011;5522;42.696;23.494;2024-01-27T02:05:53;4.38;;;2.35;;
10939;SDS011;5522;42.696;23.494;2024-01-27T02:08:21;4.60;;;1.77;;
10939;SDS011;5522;42.696;23.494;2024-01-27T02:10:47;3.15;;;1.65;;
10939;SDS011;5522;42.696;23.494;2024-01-27T02:13:15;1.83;;;1.50;;
10939;SDS011;5522;42.696;23.494;2024-01-27T02:15:45;7.75;;;1.92;;
10939;SDS011;5522;42.696;23.494;2024-01-27T02:18:12;5.35;;;1.80;;
10939;SDS011;5522;42.696;23.494;2024-01-27T02:20:39;21.85;;;11.40;;
10939;SDS011;5522;42.696;23.494;2024-01-27T02:23:06;11.15;;;5.25;;
10939;SDS011;5522;42.696;23.494;2024-01-27T02:25:35;9.60;;;4.80;;
10939;SDS011;5522;42.696;23.494;2024-01-27T02:28:02;10.10;;;4.50;;
10939;SDS011;5522;42.696;23.494;2024-01-27T02:30:29;9.63;;;4.10;;
10939;SDS011;5522;42.696;23.494;2024-01-27T02:32:56;13.23;;;5.70;;
10939;SDS011;5522;42.696;23.494;2024-01-27T02:35:25;14.52;;;6.32;;
10939;SDS011;5522;42.696;23.494;2024-01-27T02:37:52;22.00;;;10.98;;
10939;SDS011;5522;42.696;23.494;2024-01-27T02:40:19;22.67;;;10.77;;
10939;SDS011;5522;42.696;23.494;2024-01-27T02:42:47;20.30;;;11.23;;
10939;SDS011;5522;42.696;23.494;2024-01-27T02:45:14;34.03;;;20.60;;
10939;SDS011;5522;42.696;23.494;2024-01-27T02:47:41;32.53;;;17.52;;
10939;SDS011;5522;42.696;23.494;2024-01-27T02:50:08;38.08;;;20.80;;
10939;SDS011;5522;42.696;23.494;2024-01-27T02:52:35;24.30;;;14.25;;
10939;SDS011;5522;42.696;23.494;2024-01-27T02:55:05;33.13;;;14.95;;
10939;SDS011;5522;42.696;23.494;2024-01-27T02:57:33;29.10;;;13.38;;
10939;SDS011;5522;42.696;23.494;2024-01-27T03:00:01;59.47;;;24.73;;
10939;SDS011;5522;42.696;23.494;2024-01-27T03:02:33;37.95;;;17.55;;
10939;SDS011;5522;42.696;23.494;2024-01-27T03:04:59;24.35;;;12.77;;
10939;SDS011;5522;42.696;23.494;2024-01-27T03:07:26;20.42;;;10.60;;
10939;SDS011;5522;42.696;23.494;2024-01-27T03:09:53;153.25;;;63.08;;
10939;SDS011;5522;42.696;23.494;2024-01-27T03:12:20;109.95;;;47.67;;
10939;SDS011;5522;42.696;23.494;2024-01-27T03:14:48;95.05;;;44.10;;
10939;SDS011;5522;42.696;23.494;2024-01-27T03:17:17;35.30;;;17.15;;
10939;SDS011;5522;42.696;23.494;2024-01-27T03:19:44;23.40;;;8.68;;
10939;SDS011;5522;42.696;23.494;2024-01-27T03:22:11;15.77;;;4.20;;
10939;SDS011;5522;42.696;23.494;2024-01-27T03:24:38;10.82;;;2.63;;
10939;SDS011;5522;42.696;23.494;2024-01-27T03:27:05;6.95;;;1.02;;
10939;SDS011;5522;42.696;23.494;2024-01-27T03:29:31;3.95;;;0.85;;
10939;SDS011;5522;42.696;23.494;2024-01-27T03:31:58;5.20;;;1.08;;
10939;SDS011;5522;42.696;23.494;2024-01-27T03:34:27;5.60;;;0.80;;
10939;SDS011;5522;42.696;23.494;2024-01-27T03:36:53;2.90;;;0.80;;
10939;SDS011;5522;42.696;23.494;2024-01-27T03:39:23;5.75;;;1.42;;
10939;SDS011;5522;42.696;23.494;2024-01-27T03:41:49;3.50;;;0.70;;
10939;SDS011;5522;42.696;23.494;2024-01-27T03:44:16;4.65;;;0.77;;
10939;SDS011;5522;42.696;23.494;2024-01-27T03:46:43;4.55;;;0.88;;
10939;SDS011;5522;42.696;23.494;2024-01-27T03:49:10;3.80;;;0.80;;
10939;SDS011;5522;42.696;23.494;2024-01-27T03:51:38;3.55;;;0.85;;
10939;SDS011;5522;42.696;23.494;2024-01-27T03:54:05;7.45;;;1.05;;
10939;SDS011;5522;42.696;23.494;2024-01-27T03:56:33;6.88;;;1.45;;
10939;SDS011;5522;42.696;23.494;2024-01-27T03:59:00;5.55;;;1.20;;
10939;SDS011;5522;42.696;23.494;2024-01-27T04:01:28;3.60;;;1.05;;
10939;SDS011;5522;42.696;23.494;2024-01-27T04:03:55;4.63;;;0.82;;
10939;SDS011;5522;42.696;23.494;2024-01-27T04:06:22;3.97;;;1.00;;
10939;SDS011;5522;42.696;23.494;2024-01-27T04:08:50;4.40;;;1.10;;
10939;SDS011;5522;42.696;23.494;2024-01-27T04:11:20;5.55;;;1.13;;
10939;SDS011;5522;42.696;23.494;2024-01-27T04:13:48;6.85;;;0.68;;
10939;SDS011;5522;42.696;23.494;2024-01-27T04:16:15;4.45;;;0.98;;
10939;SDS011;5522;42.696;23.494;2024-01-27T04:18:42;3.30;;;0.70;;
10939;SDS011;5522;42.696;23.494;2024-01-27T04:21:09;2.33;;;0.68;;
10939;SDS011;5522;42.696;23.494;2024-01-27T04:23:36;4.35;;;0.68;;
10939;SDS011;5522;42.696;23.494;2024-01-27T04:26:04;4.78;;;0.75;;
10939;SDS011;5522;42.696;23.494;2024-01-27T04:28:34;3.38;;;1.02;;
10939;SDS011;5522;42.696;23.494;2024-01-27T04:31:01;4.80;;;0.57;;
10939;SDS011;5522;42.696;23.494;2024-01-27T04:33:28;3.90;;;0.70;;
10939;SDS011;5522;42.696;23.494;2024-01-27T04:35:55;1.65;;;0.50;;
10939;SDS011;5522;42.696;23.494;2024-01-27T04:38:22;0.90;;;0.57;;
10939;SDS011;5522;42.696;23.494;2024-01-27T04:40:49;4.88;;;0.88;;
10939;SDS011;5522;42.696;23.494;2024-01-27T04:43:18;5.75;;;0.95;;
10939;SDS011;5522;42.696;23.494;2024-01-27T04:45:47;2.80;;;0.90;;
10939;SDS011;5522;42.696;23.494;2024-01-27T04:48:14;2.72;;;1.17;;
10939;SDS011;5522;42.696;23.494;2024-01-27T04:50:41;3.92;;;0.93;;
10939;SDS011;5522;42.696;23.494;2024-01-27T04:53:07;7.75;;;2.45;;
10939;SDS011;5522;42.696;23.494;2024-01-27T04:55:34;7.93;;;2.30;;
10939;SDS011;5522;42.696;23.494;2024-01-27T04:58:01;6.53;;;1.88;;
10939;SDS011;5522;42.696;23.494;2024-01-27T05:00:29;8.65;;;3.25;;
10939;SDS011;5522;42.696;23.494;2024-01-27T05:02:56;7.88;;;1.73;;
10939;SDS011;5522;42.696;23.494;2024-01-27T05:05:28;7.30;;;1.83;;
10939;SDS011;5522;42.696;23.494;2024-01-27T05:07:55;4.10;;;1.77;;
10939;SDS011;5522;42.696;23.494;2024-01-27T05:10:22;3.00;;;0.80;;
10939;SDS011;5522;42.696;23.494;2024-01-27T05:12:50;11.93;;;3.63;;
10939;SDS011;5522;42.696;23.494;2024-01-27T05:15:17;12.40;;;2.95;;
10939;SDS011;5522;42.696;23.494;2024-01-27T05:17:45;6.47;;;1.90;;
10939;SDS011;5522;42.696;23.494;2024-01-27T05:20:12;9.80;;;5.15;;
10939;SDS011;5522;42.696;23.494;2024-01-27T05:22:39;13.35;;;2.13;;
10939;SDS011;5522;42.696;23.494;2024-01-27T05:25:06;4.60;;;1.45;;
10939;SDS011;5522;42.696;23.494;2024-01-27T05:27:34;3.63;;;0.88;;
10939;SDS011;5522;42.696;23.494;2024-01-27T05:30:03;5.10;;;1.23;;
10939;SDS011;5522;42.696;23.494;2024-01-27T05:32:31;6.07;;;0.98;;
10939;SDS011;5522;42.696;23.494;2024-01-27T05:34:59;4.55;;;1.10;;
10939;SDS011;5522;42.696;23.494;2024-01-27T05:37:26;3.00;;;1.13;;
10939;SDS011;5522;42.696;23.494;2024-01-27T05:39:52;3.03;;;0.80;;
10939;SDS011;5522;42.696;23.494;2024-01-27T05:42:19;7.88;;;1.05;;
10939;SDS011;5522;42.696;23.494;2024-01-27T05:44:46;2.00;;;0.80;;
10939;SDS011;5522;42.696;23.494;2024-01-27T05:47:13;7.28;;;1.17;;
10939;SDS011;5522;42.696;23.494;2024-01-27T05:49:40;5.35;;;0.88;;
10939;SDS011;5522;42.696;23.494;2024-01-27T05:52:09;2.83;;;1.10;;
10939;SDS011;5522;42.696;23.494;2024-01-27T05:54:35;3.92;;;1.00;;
10939;SDS011;5522;42.696;23.494;2024-01-27T05:57:02;1.83;;;0.90;;
10939;SDS011;5522;42.696;23.494;2024-01-27T05:59:30;5.10;;;0.93;;
10939;SDS011;5522;42.696;23.494;2024-01-27T06:01:56;1.85;;;1.00;;
10939;SDS011;5522;42.696;23.494;2024-01-27T06:04:24;2.72;;;1.23;;
10939;SDS011;5522;42.696;23.494;2024-01-27T06:06:50;3.75;;;1.17;;
10939;SDS011;5522;42.696;23.494;2024-01-27T06:09:19;4.25;;;1.38;;
10939;SDS011;5522;42.696;23.494;2024-01-27T06:11:46;6.30;;;2.22;;
10939;SDS011;5522;42.696;23.494;2024-01-27T06:14:13;11.18;;;3.25;;
10939;SDS011;5522;42.696;23.494;2024-01-27T06:16:40;8.82;;;3.20;;
10939;SDS011;5522;42.696;23.494;2024-01-27T06:19:07;9.93;;;3.40;;
10939;SDS011;5522;42.696;23.494;2024-01-27T06:21:34;8.57;;;3.67;;
10939;SDS011;5522;42.696;23.494;2024-01-27T06:24:01;8.35;;;3.38;;
10939;SDS011;5522;42.696;23.494;2024-01-27T06:26:29;21.95;;;8.98;;
10939;SDS011;5522;42.696;23.494;2024-01-27T06:28:56;21.35;;;9.73;;
10939;SDS011;5522;42.696;23.494;2024-01-27T06:31:23;24.63;;;11.13;;
10939;SDS011;5522;42.696;23.494;2024-01-27T06:33:50;21.73;;;11.98;;
10939;SDS011;5522;42.696;23.494;2024-01-27T06:36:16;11.15;;;6.45;;
10939;SDS011;5522;42.696;23.494;2024-01-27T06:38:43;9.02;;;2.33;;
10939;SDS011;5522;42.696;23.494;2024-01-27T06:41:10;3.33;;;1.77;;
10939;SDS011;5522;42.696;23.494;2024-01-27T06:43:38;5.97;;;1.42;;
10939;SDS011;5522;42.696;23.494;2024-01-27T06:46:05;3.15;;;1.70;;
10939;SDS011;5522;42.696;23.494;2024-01-27T06:48:32;2.55;;;1.23;;
10939;SDS011;5522;42.696;23.494;2024-01-27T06:50:59;5.90;;;1.00;;
10939;SDS011;5522;42.696;23.494;2024-01-27T06:53:25;2.42;;;1.02;;
10939;SDS011;5522;42.696;23.494;2024-01-27T06:55:52;6.10;;;1.40;;
10939;SDS011;5522;42.696;23.494;2024-01-27T06:58:19;2.60;;;1.42;;
10939;SDS011;5522;42.696;23.494;2024-01-27T07:00:48;4.30;;;1.20;;
10939;SDS011;5522;42.696;23.494;2024-01-27T07:03:14;4.93;;;1.23;;
10939;SDS011;5522;42.696;23.494;2024-01-27T07:05:41;9.27;;;1.38;;
10939;SDS011;5522;42.696;23.494;2024-01-27T07:08:08;5.88;;;1.45;;
10939;SDS011;5522;42.696;23.494;2024-01-27T07:10:35;1.95;;;1.08;;
10939;SDS011;5522;42.696;23.494;2024-01-27T07:13:02;8.07;;;2.40;;
10939;SDS011;5522;42.696;23.494;2024-01-27T07:15:31;6.97;;;1.73;;
10939;SDS011;5522;42.696;23.494;2024-01-27T07:17:59;7.20;;;1.88;;
10939;SDS011;5522;42.696;23.494;2024-01-27T07:20:26;3.55;;;1.50;;
10939;SDS011;5522;42.696;23.494;2024-01-27T07:22:54;7.18;;;1.63;;
10939;SDS011;5522;42.696;23.494;2024-01-27T07:25:21;8.80;;;1.33;;
10939;SDS011;5522;42.696;23.494;2024-01-27T07:27:48;8.32;;;1.40;;
10939;SDS011;5522;42.696;23.494;2024-01-27T07:30:15;3.28;;;1.20;;
10939;SDS011;5522;42.696;23.494;2024-01-27T07:32:42;6.85;;;1.23;;
10939;SDS011;5522;42.696;23.494;2024-01-27T07:35:10;3.40;;;1.27;;
10939;SDS011;5522;42.696;23.494;2024-01-27T07:37:37;2.88;;;1.23;;
10939;SDS011;5522;42.696;23.494;2024-01-27T07:40:05;4.25;;;1.20;;
10939;SDS011;5522;42.696;23.494;2024-01-27T07:42:36;6.43;;;1.48;;
10939;SDS011;5522;42.696;23.494;2024-01-27T07:45:03;2.05;;;1.10;;
10939;SDS011;5522;42.696;23.494;2024-01-27T07:47:30;2.53;;;0.68;;
10939;SDS011;5522;42.696;23.494;2024-01-27T07:49:57;1.88;;;0.70;;
10939;SDS011;5522;42.696;23.494;2024-01-27T07:52:26;11.70;;;2.95;;
10939;SDS011;5522;42.696;23.494;2024-01-27T07:54:52;12.30;;;3.63;;
10939;SDS011;5522;42.696;23.494;2024-01-27T07:57:19;4.45;;;0.50;;
10939;SDS011;5522;42.696;23.494;2024-01-27T07:59:47;0.50;;;0.50;;
10939;SDS011;5522;42.696;23.494;2024-01-27T08:02:14;0.40;;;0.40;;
10939;SDS011;5522;42.696;23.494;2024-01-27T08:04:41;0.80;;;0.38;;
10939;SDS011;5522;42.696;23.494;2024-01-27T08:07:08;1.95;;;0.45;;
10939;SDS011;5522;42.696;23.494;2024-01-27T08:09:37;1.92;;;0.30;;
10939;SDS011;5522;42.696;23.494;2024-01-27T08:12:04;0.75;;;0.60;;
10939;SDS011;5522;42.696;23.494;2024-01-27T08:14:32;2.85;;;0.60;;
10939;SDS011;5522;42.696;23.494;2024-01-27T08:17:02;3.17;;;0.60;;
10939;SDS011;5522;42.696;23.494;2024-01-27T08:19:29;3.03;;;0.80;;
10939;SDS011;5522;42.696;23.494;2024-01-27T08:21:56;0.73;;;0.73;;
10939;SDS011;5522;42.696;23.494;2024-01-27T08:24:23;1.65;;;0.75;;
10939;SDS011;5522;42.696;23.494;2024-01-27T08:26:52;2.58;;;0.98;;
10939;SDS011;5522;42.696;23.494;2024-01-27T08:29:19;6.00;;;0.93;;
10939;SDS011;5522;42.696;23.494;2024-01-27T08:31:46;3.17;;;1.13;;
10939;SDS011;5522;42.696;23.494;2024-01-27T08:34:12;0.80;;;0.60;;
10939;SDS011;5522;42.696;23.494;2024-01-27T08:36:39;0.77;;;0.70;;
10939;SDS011;5522;42.696;23.494;2024-01-27T08:39:06;1.55;;;0.60;;
10939;SDS011;5522;42.696;23.494;2024-01-27T08:41:34;1.10;;;0.60;;
10939;SDS011;5522;42.696;23.494;2024-01-27T08:44:03;2.53;;;0.60;;
10939;SDS011;5522;42.696;23.494;2024-01-27T08:46:30;4.55;;;0.60;;
10939;SDS011;5522;42.696;23.494;2024-01-27T08:48:57;0.80;;;0.80;;
10939;SDS011;5522;42.696;23.494;2024-01-27T08:51:23;1.05;;;0.55;;
10939;SDS011;5522;42.696;23.494;2024-01-27T08:53:52;1.60;;;0.75;;
10939;SDS011;5522;42.696;23.494;2024-01-27T08:56:19;1.30;;;0.40;;
10939;SDS011;5522;42.696;23.494;2024-01-27T08:58:45;0.38;;;0.38;;
10939;SDS011;5522;42.696;23.494;2024-01-27T09:01:15;0.60;;;0.40;;
10939;SDS011;5522;42.696;23.494;2024-01-27T09:03:42;2.40;;;0.43;;
10939;SDS011;5522;42.696;23.494;2024-01-27T09:06:09;0.65;;;0.40;;
10939;SDS011;5522;42.696;23.494;2024-01-27T09:08:39;0.47;;;0.40;;
10939;SDS011;5522;42.696;23.494;2024-01-27T09:11:06;0.40;;;0.40;;
10939;SDS011;5522;42.696;23.494;2024-01-27T09:13:34;1.75;;;0.30;;
10939;SDS011;5522;42.696;23.494;2024-01-27T09:16:01;0.40;;;0.32;;
10939;SDS011;5522;42.696;23.494;2024-01-27T09:18:29;1.55;;;0.40;;
10939;SDS011;5522;42.696;23.494;2024-01-27T09:20:56;0.50;;;0.30;;
10939;SDS011;5522;42.696;23.494;2024-01-27T09:23:23;1.13;;;0.30;;
10939;SDS011;5522;42.696;23.494;2024-01-27T09:25:50;0.35;;;0.35;;
10939;SDS011;5522;42.696;23.494;2024-01-27T09:28:16;0.30;;;0.30;;
10939;SDS011;5522;42.696;23.494;2024-01-27T09:30:43;0.57;;;0.30;;
10939;SDS011;5522;42.696;23.494;2024-01-27T09:33:10;11.82;;;0.80;;
10939;SDS011;5522;42.696;23.494;2024-01-27T09:35:39;0.40;;;0.30;;
10939;SDS011;5522;42.696;23.494;2024-01-27T09:38:06;0.60;;;0.25;;
10939;SDS011;5522;42.696;23.494;2024-01-27T09:40:35;0.40;;;0.20;;
10939;SDS011;5522;42.696;23.494;2024-01-27T09:43:02;0.20;;;0.20;;
10939;SDS011;5522;42.696;23.494;2024-01-27T09:45:29;0.20;;;0.20;;
10939;SDS011;5522;42.696;23.494;2024-01-27T09:47:59;0.30;;;0.30;;
10939;SDS011;5522;42.696;23.494;2024-01-27T09:50:27;0.20;;;0.20;;
10939;SDS011;5522;42.696;23.494;2024-01-27T09:52:55;0.30;;;0.30;;
10939;SDS011;5522;42.696;23.494;2024-01-27T09:55:25;0.82;;;0.30;;
10939;SDS011;5522;42.696;23.494;2024-01-27T09:57:58;0.98;;;0.20;;
10939;SDS011;5522;42.696;23.494;2024-01-27T10:00:27;0.40;;;0.40;;
10939;SDS011;5522;42.696;23.494;2024-01-27T10:02:54;0.82;;;0.30;;
10939;SDS011;5522;42.696;23.494;2024-01-27T10:05:26;2.53;;;0.30;;
10939;SDS011;5522;42.696;23.494;2024-01-27T10:07:58;1.50;;;0.20;;
10939;SDS011;5522;42.696;23.494;2024-01-27T10:10:25;0.43;;;0.30;;
10939;SDS011;5522;42.696;23.494;2024-01-27T10:12:56;0.30;;;0.30;;
10939;SDS011;5522;42.696;23.494;2024-01-27T10:15:26;0.20;;;0.20;;
10939;SDS011;5522;42.696;23.494;2024-01-27T10:18:03;0.30;;;0.30;;
10939;SDS011;5522;42.696;23.494;2024-01-27T10:20:35;0.98;;;0.30;;
10939;SDS011;5522;42.696;23.494;2024-01-27T10:23:11;1.58;;;0.40;;
10939;SDS011;5522;42.696;23.494;2024-01-27T10:25:43;0.30;;;0.30;;
10939;SDS011;5522;42.696;23.494;2024-01-27T10:28:12;0.30;;;0.30;;
10939;SDS011;5522;42.696;23.494;2024-01-27T10:30:48;0.20;;;0.20;;
10939;SDS011;5522;42.696;23.494;2024-01-27T10:33:15;1.02;;;0.30;;
10939;SDS011;5522;42.696;23.494;2024-01-27T10:35:58;0.30;;;0.30;;
10939;SDS011;5522;42.696;23.494;2024-01-27T10:38:34;0.30;;;0.30;;
10939;SDS011;5522;42.696;23.494;2024-01-27T10:41:07;3.85;;;0.40;;
10939;SDS011;5522;42.696;23.494;2024-01-27T10:43:37;0.30;;;0.30;;
10939;SDS011;5522;42.696;23.494;2024-01-27T10:46:08;0.50;;;0.20;;
10939;SDS011;5522;42.696;23.494;2024-01-27T10:48:37;0.30;;;0.30;;
10939;SDS011;5522;42.696;23.494;2024-01-27T10:51:08;0.95;;;0.40;;
10939;SDS011;5522;42.696;23.494;2024-01-27T10:53:48;1.75;;;0.30;;
10939;SDS011;5522;42.696;23.494;2024-01-27T10:56:29;0.30;;;0.30;;
10939;SDS011;5522;42.696;23.494;2024-01-27T11:01:21;0.68;;;0.40;;
10939;SDS011;5522;42.696;23.494;2024-01-27T11:01:52;2.50;;;0.20;;
10939;SDS011;5522;42.696;23.494;2024-01-27T11:04:23;0.40;;;0.40;;
10939;SDS011;5522;42.696;23.494;2024-01-27T11:06:53;0.40;;;0.40;;
10939;SDS011;5522;42.696;23.494;2024-01-27T11:09:23;0.30;;;0.30;;
10939;SDS011;5522;42.696;23.494;2024-01-27T11:11:51;2.63;;;0.20;;
10939;SDS011;5522;42.696;23.494;2024-01-27T11:14:21;1.17;;;0.22;;
10939;SDS011;5522;42.696;23.494;2024-01-27T11:16:54;0.20;;;0.20;;
10939;SDS011;5522;42.696;23.494;2024-01-27T11:19:21;0.20;;;0.20;;
10939;SDS011;5522;42.696;23.494;2024-01-27T11:22:00;0.20;;;0.20;;
10939;SDS011;5522;42.696;23.494;2024-01-27T11:24:32;0.20;;;0.20;;
10939;SDS011;5522;42.696;23.494;2024-01-27T11:27:02;0.20;;;0.20;;
10939;SDS011;5522;42.696;23.494;2024-01-27T11:29:30;0.22;;;0.22;;
10939;SDS011;5522;42.696;23.494;2024-01-27T11:32:01;0.30;;;0.30;;
10939;SDS011;5522;42.696;23.494;2024-01-27T11:34:40;1.30;;;0.30;;
10939;SDS011;5522;42.696;23.494;2024-01-27T11:37:11;3.33;;;0.38;;
10939;SDS011;5522;42.696;23.494;2024-01-27T11:39:41;1.40;;;0.45;;
10939;SDS011;5522;42.696;23.494;2024-01-27T11:42:08;3.30;;;0.80;;
10939;SDS011;5522;42.696;23.494;2024-01-27T11:44:42;2.08;;;0.50;;
10939;SDS011;5522;42.696;23.494;2024-01-27T11:47:13;1.77;;;0.50;;
10939;SDS011;5522;42.696;23.494;2024-01-27T11:49:41;2.17;;;0.73;;
10939;SDS011;5522;42.696;23.494;2024-01-27T11:52:11;1.40;;;0.70;;
10939;SDS011;5522;42.696;23.494;2024-01-27T11:54:38;3.05;;;0.45;;
10939;SDS011;5522;42.696;23.494;2024-01-27T11:59:48;1.27;;;0.50;;
10939;SDS011;5522;42.696;23.494;2024-01-27T12:02:17;0.45;;;0.45;;
10939;SDS011;5522;42.696;23.494;2024-01-27T12:04:52;0.50;;;0.50;;
10939;SDS011;5522;42.696;23.494;2024-01-27T12:07:19;2.60;;;0.50;;
10939;SDS011;5522;42.696;23.494;2024-01-27T12:09:48;0.57;;;0.57;;
10939;SDS011;5522;42.696;23.494;2024-01-27T12:12:15;0.95;;;0.60;;
10939;SDS011;5522;42.696;23.494;2024-01-27T12:14:46;1.20;;;0.60;;
10939;SDS011;5522;42.696;23.494;2024-01-27T12:17:17;0.90;;;0.50;;
10939;SDS011;5522;42.696;23.494;2024-01-27T12:19:52;3.78;;;0.50;;
10939;SDS011;5522;42.696;23.494;2024-01-27T12:22:29;0.50;;;0.50;;
10939;SDS011;5522;42.696;23.494;2024-01-27T12:24:56;0.88;;;0.50;;
10939;SDS011;5522;42.696;23.494;2024-01-27T12:27:38;0.50;;;0.50;;
10939;SDS011;5522;42.696;23.494;2024-01-27T12:30:13;1.25;;;0.50;;
10939;SDS011;5522;42.696;23.494;2024-01-27T12:32:40;1.13;;;0.50;;
10939;SDS011;5522;42.696;23.494;2024-01-27T12:35:09;3.38;;;0.40;;
10939;SDS011;5522;42.696;23.494;2024-01-27T12:37:37;3.03;;;0.47;;
10939;SDS011;5522;42.696;23.494;2024-01-27T12:40:16;0.35;;;0.35;;
10939;SDS011;5522;42.696;23.494;2024-01-27T12:42:51;0.55;;;0.40;;
10939;SDS011;5522;42.696;23.494;2024-01-27T12:45:19;0.40;;;0.40;;
10939;SDS011;5522;42.696;23.494;2024-01-27T12:47:48;1.10;;;0.40;;
10939;SDS011;5522;42.696;23.494;2024-01-27T12:50:18;0.55;;;0.40;;
10939;SDS011;5522;42.696;23.494;2024-01-27T12:52:47;1.98;;;0.45;;
10939;SDS011;5522;42.696;23.494;2024-01-27T12:55:19;0.80;;;0.30;;
10939;SDS011;5522;42.696;23.494;2024-01-27T12:57:46;0.30;;;0.30;;
10939;SDS011;5522;42.696;23.494;2024-01-27T13:00:16;0.60;;;0.40;;
10939;SDS011;5522;42.696;23.494;2024-01-27T13:02:48;0.85;;;0.40;;
10939;SDS011;5522;42.696;23.494;2024-01-27T13:05:15;0.40;;;0.30;;
10939;SDS011;5522;42.696;23.494;2024-01-27T13:07:45;0.30;;;0.30;;
10939;SDS011;5522;42.696;23.494;2024-01-27T13:10:15;1.80;;;0.20;;
10939;SDS011;5522;42.696;23.494;2024-01-27T13:12:44;0.30;;;0.20;;
10939;SDS011;5522;42.696;23.494;2024-01-27T13:15:16;3.25;;;0.30;;
10939;SDS011;5522;42.696;23.494;2024-01-27T13:17:45;0.20;;;0.20;;
10939;SDS011;5522;42.696;23.494;2024-01-27T13:20:18;0.93;;;0.20;;
10939;SDS011;5522;42.696;23.494;2024-01-27T13:22:54;0.45;;;0.10;;
10939;SDS011;5522;42.696;23.494;2024-01-27T13:25:26;0.77;;;0.22;;
10939;SDS011;5522;42.696;23.494;2024-01-27T13:27:53;1.17;;;0.20;;
10939;SDS011;5522;42.696;23.494;2024-01-27T13:30:21;2.83;;;0.30;;
10939;SDS011;5522;42.696;23.494;2024-01-27T13:32:57;0.20;;;0.20;;
10939;SDS011;5522;42.696;23.494;2024-01-27T13:35:37;0.90;;;0.10;;
10939;SDS011;5522;42.696;23.494;2024-01-27T13:38:08;1.40;;;0.20;;
10939;SDS011;5522;42.696;23.494;2024-01-27T13:40:37;0.50;;;0.20;;
10939;SDS011;5522;42.696;23.494;2024-01-27T13:43:05;1.65;;;0.40;;
10939;SDS011;5522;42.696;23.494;2024-01-27T13:45:32;0.20;;;0.20;;
10939;SDS011;5522;42.696;23.494;2024-01-27T13:48:00;0.88;;;0.30;;
10939;SDS011;5522;42.696;23.494;2024-01-27T13:50:27;0.40;;;0.40;;
10939;SDS011;5522;42.696;23.494;2024-01-27T13:52:56;0.68;;;0.40;;
10939;SDS011;5522;42.696;23.494;2024-01-27T13:55:23;2.05;;;0.35;;
10939;SDS011;5522;42.696;23.494;2024-01-27T13:57:50;0.30;;;0.30;;
10939;SDS011;5522;42.696;23.494;2024-01-27T14:00:17;1.35;;;0.30;;
10939;SDS011;5522;42.696;23.494;2024-01-27T14:02:45;0.22;;;0.20;;
10939;SDS011;5522;42.696;23.494;2024-01-27T14:05:14;0.30;;;0.30;;
10939;SDS011;5522;42.696;23.494;2024-01-27T14:07:41;1.20;;;0.30;;
10939;SDS011;5522;42.696;23.494;2024-01-27T14:10:08;0.68;;;0.22;;
10939;SDS011;5522;42.696;23.494;2024-01-27T14:12:35;0.20;;;0.20;;
10939;SDS011;5522;42.696;23.494;2024-01-27T14:15:05;3.70;;;0.20;;
10939;SDS011;5522;42.696;23.494;2024-01-27T14:17:36;0.32;;;0.30;;
10939;SDS011;5522;42.696;23.494;2024-01-27T14:20:06;0.38;;;0.20;;
10939;SDS011;5522;42.696;23.494;2024-01-27T14:22:36;0.90;;;0.20;;
10939;SDS011;5522;42.696;23.494;2024-01-27T14:25:04;0.20;;;0.20;;
10939;SDS011;5522;42.696;23.494;2024-01-27T14:27:31;0.57;;;0.20;;
10939;SDS011;5522;42.696;23.494;2024-01-27T14:30:00;1.98;;;0.10;;
10939;SDS011;5522;42.696;23.494;2024-01-27T14:32:27;1.48;;;0.20;;
10939;SDS011;5522;42.696;23.494;2024-01-27T14:34:56;0.93;;;0.20;;
10939;SDS011;5522;42.696;23.494;2024-01-27T14:37:30;0.73;;;0.20;;
10939;SDS011;5522;42.696;23.494;2024-01-27T14:39:59;1.13;;;0.30;;
10939;SDS011;5522;42.696;23.494;2024-01-27T14:42:25;0.65;;;0.47;;
10939;SDS011;5522;42.696;23.494;2024-01-27T14:44:52;0.75;;;0.30;;
10939;SDS011;5522;42.696;23.494;2024-01-27T14:47:25;0.55;;;0.30;;
10939;SDS011;5522;42.696;23.494;2024-01-27T14:49:54;3.00;;;0.30;;
10939;SDS011;5522;42.696;23.494;2024-01-27T14:52:25;1.00;;;0.40;;
10939;SDS011;5522;42.696;23.494;2024-01-27T14:54:54;0.40;;;0.30;;
10939;SDS011;5522;42.696;23.494;2024-01-27T14:57:32;0.25;;;0.20;;
10939;SDS011;5522;42.696;23.494;2024-01-27T14:59:59;4.07;;;0.50;;
10939;SDS011;5522;42.696;23.494;2024-01-27T15:02:27;0.70;;;0.30;;
10939;SDS011;5522;42.696;23.494;2024-01-27T15:04:57;0.98;;;0.40;;